Time;durP1;ratioP1;P1;durP2;ratioP2;P2;SDS_P1;SDS_P2;PMS_P1;PMS_P2;Temp;Humidity;BMP_temperature;BMP_pressure;BME280_temperature;BME280_humidity;BME280_pressure;Samples;Min_cycle;Max_cycle;Signal;HPM_P1;HPM_P2
2023/02/16 00:01:56;;;;;;;2.20;2.10;;;;;;;;;;5074429;28;20032;-78
2023/02/16 00:04:23;;;;;;;6.30;2.65;;;;;;;;;;5092575;28;20036;-80
2023/02/16 00:06:49;;;;;;;2.33;2.22;;;;;;;;;;5092572;28;20048;-80
2023/02/16 00:09:15;;;;;;;3.75;2.20;;;;;;;;;;5092217;28;20058;-79
2023/02/16 00:14:25;;;;;;;1.70;1.70;;;;;;;;;;5092410;28;20039;-78
2023/02/16 00:16:52;;;;;;;2.25;2.15;;;;;;;;;;5073865;28;20040;-78
2023/02/16 00:19:19;;;;;;;2.13;2.03;;;;;;;;;;5074009;28;20027;-78
2023/02/16 00:21:46;;;;;;;2.63;2.50;;;;;;;;;;5073953;28;20035;-79
2023/02/16 00:24:12;;;;;;;2.25;2.15;;;;;;;;;;5073839;28;20083;-78
2023/02/16 00:26:39;;;;;;;2.35;2.25;;;;;;;;;;5091605;28;20196;-78
2023/02/16 00:29:05;;;;;;;2.25;2.05;;;;;;;;;;5056934;28;20515;-79
2023/02/16 00:31:31;;;;;;;2.40;2.20;;;;;;;;;;5074153;28;20087;-78
2023/02/16 00:33:58;;;;;;;2.25;2.15;;;;;;;;;;5075324;28;20032;-78
2023/02/16 00:36:24;;;;;;;3.72;2.30;;;;;;;;;;5058512;28;20062;-79
2023/02/16 00:38:50;;;;;;;2.15;2.03;;;;;;;;;;5091437;28;20491;-79
2023/02/16 00:44:04;;;;;;;2.65;2.47;;;;;;;;;;5076647;28;20032;-81
2023/02/16 00:46:30;;;;;;;1.80;1.70;;;;;;;;;;5073629;28;20047;-78
2023/02/16 00:48:56;;;;;;;2.20;2.10;;;;;;;;;;5073450;28;20495;-79
2023/02/16 00:51:23;;;;;;;2.13;2.03;;;;;;;;;;5092039;28;20110;-79
2023/02/16 00:53:50;;;;;;;2.28;2.05;;;;;;;;;;5091395;28;20051;-77
2023/02/16 00:56:17;;;;;;;2.50;2.35;;;;;;;;;;5073609;28;20738;-79
2023/02/16 00:58:43;;;;;;;2.40;2.20;;;;;;;;;;5090664;28;20040;-78
2023/02/16 01:01:11;;;;;;;2.88;2.67;;;;;;;;;;5091335;28;20044;-78
2023/02/16 01:03:37;;;;;;;3.65;3.45;;;;;;;;;;5056236;28;20649;-79
2023/02/16 01:11:34;;;;;;;2.63;2.53;;;;;;;;;;5091127;28;20040;-77
2023/02/16 01:14:00;;;;;;;3.03;2.83;;;;;;;;;;5091461;28;20036;-76
2023/02/16 01:16:32;;;;;;;2.25;2.15;;;;;;;;;;5090752;28;20567;-76
2023/02/16 01:18:58;;;;;;;4.43;3.10;;;;;;;;;;5072608;28;20032;-77
2023/02/16 01:21:24;;;;;;;1.98;1.88;;;;;;;;;;5072502;28;20052;-78
2023/02/16 01:23:51;;;;;;;3.40;2.50;;;;;;;;;;5090344;28;20408;-77
2023/02/16 01:26:18;;;;;;;2.90;2.70;;;;;;;;;;5072455;28;20046;-77
2023/02/16 01:28:45;;;;;;;3.35;3.15;;;;;;;;;;5090350;28;20044;-77
2023/02/16 01:31:12;;;;;;;2.95;2.75;;;;;;;;;;5039192;28;20032;-76
2023/02/16 01:33:38;;;;;;;1.95;1.85;;;;;;;;;;5072124;28;20040;-77
2023/02/16 01:36:05;;;;;;;3.05;2.90;;;;;;;;;;5072315;28;20044;-76
2023/02/16 01:38:31;;;;;;;2.63;2.42;;;;;;;;;;5090433;28;20518;-77
2023/02/16 01:41:03;;;;;;;2.70;2.33;;;;;;;;;;5090046;28;20466;-76
2023/02/16 01:43:45;;;;;;;2.80;2.70;;;;;;;;;;5072169;28;20407;-77
2023/02/16 01:46:44;;;;;;;2.50;2.38;;;;;;;;;;5055607;28;20043;-77
2023/02/16 01:49:11;;;;;;;2.50;2.40;;;;;;;;;;5045110;28;20105;-77
2023/02/16 01:51:41;;;;;;;2.90;2.70;;;;;;;;;;5037618;28;20040;-77
2023/02/16 01:54:13;;;;;;;2.58;2.45;;;;;;;;;;5071878;28;20028;-78
2023/02/16 01:57:03;;;;;;;3.10;2.90;;;;;;;;;;5069561;28;20040;-78
2023/02/16 01:59:40;;;;;;;2.67;2.58;;;;;;;;;;5034881;28;20047;-77
2023/02/16 02:02:35;;;;;;;2.35;2.25;;;;;;;;;;5071818;28;20052;-77
2023/02/16 02:08:02;;;;;;;2.97;2.83;;;;;;;;;;5054770;28;20040;-78
2023/02/16 02:10:34;;;;;;;2.85;2.65;;;;;;;;;;5089829;28;20062;-78
2023/02/16 02:13:02;;;;;;;3.33;2.75;;;;;;;;;;5089540;28;20684;-76
2023/02/16 02:15:29;;;;;;;3.65;3.35;;;;;;;;;;5071532;28;20460;-75
2023/02/16 02:17:55;;;;;;;3.08;2.88;;;;;;;;;;5089564;28;20058;-76
2023/02/16 02:23:44;;;;;;;3.58;2.40;;;;;;;;;;5089517;28;20043;-77
2023/02/16 02:26:31;;;;;;;1.77;1.67;;;;;;;;;;5089584;28;20122;-77
2023/02/16 02:29:03;;;;;;;2.55;2.35;;;;;;;;;;5071274;28;20407;-78
2023/02/16 02:31:50;;;;;;;1.63;1.63;;;;;;;;;;5072056;28;20043;-77
2023/02/16 02:34:23;;;;;;;2.22;2.03;;;;;;;;;;5053565;28;20456;-78
2023/02/16 02:36:50;;;;;;;2.50;2.38;;;;;;;;;;5070970;28;20112;-78
2023/02/16 02:39:24;;;;;;;1.92;1.83;;;;;;;;;;5054548;28;20522;-78
2023/02/16 02:42:20;;;;;;;2.35;2.25;;;;;;;;;;5071075;28;20385;-76
2023/02/16 02:44:54;;;;;;;2.38;2.15;;;;;;;;;;5056604;28;20535;-78
2023/02/16 02:47:20;;;;;;;2.90;2.70;;;;;;;;;;5071531;28;20084;-78
2023/02/16 02:49:53;;;;;;;2.60;2.50;;;;;;;;;;5070951;28;20036;-77
2023/02/16 02:52:19;;;;;;;2.55;2.45;;;;;;;;;;5054738;28;20069;-78
2023/02/16 03:00:46;;;;;;;2.30;2.20;;;;;;;;;;5055484;28;20083;-77
2023/02/16 03:03:19;;;;;;;2.30;2.20;;;;;;;;;;5021356;28;20117;-79
2023/02/16 03:06:09;;;;;;;2.15;2.03;;;;;;;;;;5074741;28;20039;-78
2023/02/16 03:08:36;;;;;;;3.42;3.13;;;;;;;;;;5086619;28;20055;-77
2023/02/16 03:14:02;;;;;;;2.67;2.47;;;;;;;;;;5080897;28;20035;-76
2023/02/16 03:16:30;;;;;;;3.38;3.10;;;;;;;;;;5080756;28;20047;-75
2023/02/16 03:29:56;;;;;;;2.55;2.35;;;;;;;;;;5091915;28;20043;-77
2023/02/16 03:32:22;;;;;;;2.60;2.50;;;;;;;;;;5075293;28;20419;-78
2023/02/16 03:34:48;;;;;;;2.80;2.60;;;;;;;;;;5092841;28;20040;-77
2023/02/16 03:37:14;;;;;;;2.30;2.20;;;;;;;;;;5092242;28;20101;-81
2023/02/16 03:42:24;;;;;;;4.25;2.53;;;;;;;;;;5104447;28;20043;-80
2023/02/16 03:44:50;;;;;;;3.15;2.83;;;;;;;;;;5101654;28;20400;-81
2023/02/16 03:47:16;;;;;;;2.70;2.60;;;;;;;;;;5102119;28;20032;-81
2023/02/16 03:49:42;;;;;;;2.45;2.30;;;;;;;;;;5104100;28;20214;-83
2023/02/16 03:52:09;;;;;;;2.25;2.15;;;;;;;;;;5106369;28;20157;-81
2023/02/16 03:54:36;;;;;;;2.83;2.65;;;;;;;;;;5101221;28;20044;-81
2023/02/16 03:57:02;;;;;;;2.20;2.10;;;;;;;;;;5099929;28;20107;-81
2023/02/16 03:59:28;;;;;;;2.60;2.50;;;;;;;;;;5102283;28;20086;-82
2023/02/16 04:01:54;;;;;;;2.85;2.65;;;;;;;;;;5102453;28;20032;-82
2023/02/16 04:04:20;;;;;;;2.90;2.70;;;;;;;;;;5093242;28;20036;-84
2023/02/16 04:06:46;;;;;;;2.13;2.03;;;;;;;;;;5100364;28;20411;-83
2023/02/16 04:09:12;;;;;;;2.53;2.33;;;;;;;;;;5099356;28;20523;-79
2023/02/16 04:14:23;;;;;;;9.85;2.85;;;;;;;;;;5082508;28;20033;-82
2023/02/16 04:16:49;;;;;;;2.05;1.95;;;;;;;;;;5083042;28;20101;-82
2023/02/16 04:19:14;;;;;;;2.38;2.28;;;;;;;;;;5087183;28;20041;-81
2023/02/16 04:21:41;;;;;;;2.35;2.25;;;;;;;;;;5099955;28;20040;-81
2023/02/16 04:24:07;;;;;;;2.80;2.65;;;;;;;;;;5098458;28;20028;-82
2023/02/16 04:26:33;;;;;;;3.00;2.80;;;;;;;;;;5087327;28;20031;-83
2023/02/16 04:28:59;;;;;;;3.40;3.20;;;;;;;;;;5105866;28;20495;-82
2023/02/16 04:31:25;;;;;;;3.17;2.97;;;;;;;;;;5103036;28;20039;-83
2023/02/16 04:33:51;;;;;;;2.35;2.25;;;;;;;;;;5102352;28;20032;-81
2023/02/16 04:36:18;;;;;;;2.53;2.40;;;;;;;;;;5102273;28;20047;-81
2023/02/16 04:38:44;;;;;;;2.85;2.65;;;;;;;;;;5103407;28;20020;-83
2023/02/16 04:41:10;;;;;;;3.20;3.00;;;;;;;;;;5103108;28;20036;-83
2023/02/16 04:43:36;;;;;;;2.30;2.20;;;;;;;;;;5103462;28;20043;-81
2023/02/16 04:46:02;;;;;;;2.60;2.40;;;;;;;;;;5108483;28;20067;-79
2023/02/16 04:48:28;;;;;;;2.47;2.38;;;;;;;;;;5109729;28;20028;-82
2023/02/16 04:50:54;;;;;;;3.30;3.10;;;;;;;;;;5090737;28;20043;-79
2023/02/16 04:53:21;;;;;;;2.30;2.20;;;;;;;;;;5092053;28;20036;-82
2023/02/16 04:55:47;;;;;;;2.28;2.17;;;;;;;;;;5075401;28;20526;-82
2023/02/16 04:58:13;;;;;;;2.65;2.45;;;;;;;;;;5095133;28;20040;-80
2023/02/16 05:00:39;;;;;;;2.00;1.95;;;;;;;;;;5113700;28;20059;-81
2023/02/16 05:03:05;;;;;;;2.55;2.35;;;;;;;;;;5095074;28;20091;-81
2023/02/16 05:05:33;;;;;;;3.65;3.08;;;;;;;;;;5112756;28;20039;-81
2023/02/16 05:08:00;;;;;;;2.72;2.53;;;;;;;;;;5111151;28;20024;-82
2023/02/16 05:10:26;;;;;;;3.20;3.00;;;;;;;;;;5105975;28;20047;-83
2023/02/16 05:15:37;;;;;;;2.90;2.72;;;;;;;;;;5111307;28;20051;-81
2023/02/16 05:18:02;;;;;;;3.22;2.95;;;;;;;;;;5110246;28;20059;-82
2023/02/16 05:23:13;;;;;;;4.88;4.38;;;;;;;;;;5106707;28;20039;-83
2023/02/16 05:25:39;;;;;;;2.67;2.58;;;;;;;;;;5105818;28;20032;-82
2023/02/16 05:28:05;;;;;;;3.38;3.17;;;;;;;;;;5109275;28;20038;-81
2023/02/16 05:30:31;;;;;;;3.60;3.40;;;;;;;;;;5108643;28;20698;-81
2023/02/16 05:32:57;;;;;;;2.55;2.45;;;;;;;;;;5107619;28;20046;-83
2023/02/16 05:35:23;;;;;;;2.25;2.15;;;;;;;;;;5108072;28;20055;-81
2023/02/16 05:37:49;;;;;;;2.55;2.45;;;;;;;;;;5109036;28;20036;-84
2023/02/16 05:40:15;;;;;;;3.60;3.25;;;;;;;;;;5109191;28;20058;-83
2023/02/16 05:42:41;;;;;;;2.30;2.10;;;;;;;;;;5106346;28;20028;-79
2023/02/16 05:45:08;;;;;;;2.40;2.30;;;;;;;;;;5090519;28;20522;-82
2023/02/16 05:47:34;;;;;;;4.93;4.40;;;;;;;;;;5102337;28;20127;-79
2023/02/16 05:49:59;;;;;;;4.40;4.10;;;;;;;;;;5083115;28;20108;-79
2023/02/16 05:52:25;;;;;;;3.50;3.20;;;;;;;;;;5078131;28;20425;-79
2023/02/16 05:54:51;;;;;;;7.22;3.78;;;;;;;;;;5073958;28;20169;-78
2023/02/16 05:57:17;;;;;;;3.42;3.22;;;;;;;;;;5070284;28;20492;-79
2023/02/16 05:59:46;;;;;;;4.40;3.92;;;;;;;;;;5071186;28;20473;-79
2023/02/16 06:02:12;;;;;;;3.30;3.10;;;;;;;;;;5019092;28;20049;-79
2023/02/16 06:04:38;;;;;;;3.90;3.60;;;;;;;;;;5069881;28;20039;-80
2023/02/16 06:07:04;;;;;;;3.28;3.08;;;;;;;;;;5082185;28;20058;-80
2023/02/16 06:09:30;;;;;;;5.45;4.03;;;;;;;;;;5083881;28;20036;-80
2023/02/16 06:11:56;;;;;;;4.47;4.13;;;;;;;;;;5075095;28;20040;-81
2023/02/16 06:14:22;;;;;;;2.70;2.60;;;;;;;;;;5100565;28;20070;-82
2023/02/16 06:16:50;;;;;;;2.75;2.55;;;;;;;;;;5081890;28;20101;-80
2023/02/16 06:19:16;;;;;;;4.15;3.75;;;;;;;;;;5085836;28;20032;-77
2023/02/16 06:21:42;;;;;;;3.58;3.28;;;;;;;;;;5060931;28;20796;-78
2023/02/16 06:24:08;;;;;;;3.17;2.88;;;;;;;;;;5088903;28;20110;-78
2023/02/16 06:26:34;;;;;;;4.45;4.15;;;;;;;;;;5087806;28;20036;-78
2023/02/16 06:29:00;;;;;;;4.80;4.40;;;;;;;;;;5096497;28;20059;-81
2023/02/16 06:31:26;;;;;;;3.17;2.90;;;;;;;;;;5116975;28;20036;-81
2023/02/16 06:33:52;;;;;;;3.90;3.45;;;;;;;;;;5099303;28;20073;-82
2023/02/16 06:36:18;;;;;;;5.70;3.90;;;;;;;;;;5095514;28;20114;-82
2023/02/16 06:38:44;;;;;;;5.22;4.82;;;;;;;;;;5102186;28;20035;-80
2023/02/16 06:41:10;;;;;;;4.70;4.30;;;;;;;;;;5094353;28;20035;-81
2023/02/16 06:43:36;;;;;;;4.38;4.07;;;;;;;;;;5095807;28;20559;-79
2023/02/16 06:46:03;;;;;;;3.10;2.88;;;;;;;;;;5094550;28;20034;-80
2023/02/16 06:48:29;;;;;;;4.05;3.05;;;;;;;;;;5090272;28;20043;-75
2023/02/16 06:50:55;;;;;;;3.15;2.95;;;;;;;;;;5089750;28;20153;-78
2023/02/16 06:53:21;;;;;;;3.88;3.58;;;;;;;;;;5074788;28;20041;-78
2023/02/16 06:55:49;;;;;;;3.58;3.30;;;;;;;;;;5088820;28;20047;-76
2023/02/16 06:58:15;;;;;;;2.95;2.75;;;;;;;;;;5090083;28;20028;-77
2023/02/16 07:00:41;;;;;;;4.90;4.60;;;;;;;;;;5095612;28;20059;-81
2023/02/16 07:03:07;;;;;;;2.53;2.33;;;;;;;;;;5079722;28;20597;-78
2023/02/16 07:05:33;;;;;;;2.60;2.40;;;;;;;;;;5082392;28;20065;-81
2023/02/16 07:07:59;;;;;;;4.07;3.78;;;;;;;;;;5105839;28;20036;-80
2023/02/16 07:10:25;;;;;;;2.83;2.63;;;;;;;;;;5095414;28;20089;-79
2023/02/16 07:12:50;;;;;;;4.20;3.90;;;;;;;;;;5095535;28;20487;-80
2023/02/16 07:15:17;;;;;;;3.58;3.38;;;;;;;;;;5101894;28;20039;-81
2023/02/16 07:17:43;;;;;;;4.70;4.30;;;;;;;;;;5069511;28;20050;-80
2023/02/16 07:20:11;;;;;;;2.70;2.55;;;;;;;;;;5102687;28;20047;-80
2023/02/16 07:22:37;;;;;;;9.95;5.13;;;;;;;;;;5089463;28;20055;-81
2023/02/16 07:25:03;;;;;;;5.15;4.75;;;;;;;;;;5106272;28;20036;-80
2023/02/16 07:27:29;;;;;;;5.53;4.85;;;;;;;;;;5099226;28;20028;-80
2023/02/16 07:29:55;;;;;;;3.53;3.25;;;;;;;;;;5094225;28;20074;-75
2023/02/16 07:32:21;;;;;;;3.08;2.88;;;;;;;;;;5075446;28;20043;-78
2023/02/16 07:34:48;;;;;;;4.28;3.97;;;;;;;;;;5056204;28;20121;-78
2023/02/16 07:37:15;;;;;;;4.53;4.15;;;;;;;;;;5072829;28;20109;-78
2023/02/16 07:39:43;;;;;;;4.63;4.32;;;;;;;;;;5052078;28;20060;-76
2023/02/16 07:42:09;;;;;;;4.25;3.95;;;;;;;;;;5081693;28;20569;-80
2023/02/16 07:44:35;;;;;;;4.80;3.80;;;;;;;;;;5092983;28;20047;-80
2023/02/16 07:47:01;;;;;;;3.53;3.22;;;;;;;;;;5093107;28;20071;-80
2023/02/16 07:49:27;;;;;;;3.33;3.13;;;;;;;;;;5093959;28;20514;-80
2023/02/16 07:51:53;;;;;;;3.33;3.13;;;;;;;;;;5080817;28;20036;-80
2023/02/16 07:54:19;;;;;;;4.10;3.80;;;;;;;;;;5099088;28;20020;-80
2023/02/16 07:56:45;;;;;;;3.95;3.20;;;;;;;;;;5099772;28;20044;-80
2023/02/16 07:59:13;;;;;;;4.30;4.00;;;;;;;;;;5099007;28;20530;-79
2023/02/16 08:01:40;;;;;;;4.68;4.28;;;;;;;;;;5100937;28;20177;-80
2023/02/16 08:04:06;;;;;;;3.13;2.92;;;;;;;;;;5116866;28;20144;-80
2023/02/16 08:06:33;;;;;;;4.03;3.72;;;;;;;;;;5112548;28;20539;-80
2023/02/16 08:08:59;;;;;;;7.95;7.18;;;;;;;;;;5074758;28;20586;-80
2023/02/16 08:11:25;;;;;;;5.82;5.30;;;;;;;;;;5093004;28;20043;-80
2023/02/16 08:13:51;;;;;;;6.60;3.90;;;;;;;;;;5092962;28;20612;-80
2023/02/16 08:16:18;;;;;;;3.28;2.28;;;;;;;;;;5092641;28;20070;-79
2023/02/16 08:18:44;;;;;;;2.97;2.78;;;;;;;;;;5093132;28;20478;-79
2023/02/16 08:21:14;;;;;;;3.75;3.50;;;;;;;;;;5075614;28;20127;-80
2023/02/16 08:23:46;;;;;;;4.45;4.05;;;;;;;;;;5093407;28;20123;-80
2023/02/16 08:26:12;;;;;;;;;;;;;;;;;;5093617;28;20032;-80
2023/02/16 08:28:44;;;;;;;3.25;3.05;;;;;;;;;;5094409;28;20425;-79
2023/02/16 08:31:11;;;;;;;2.45;2.35;;;;;;;;;;5092893;28;20064;-80
2023/02/16 08:33:37;;;;;;;3.50;3.30;;;;;;;;;;5075276;28;20043;-80
2023/02/16 08:36:04;;;;;;;4.10;3.80;;;;;;;;;;5093841;28;20036;-79
2023/02/16 08:38:31;;;;;;;4.25;3.85;;;;;;;;;;5058955;28;20085;-80
2023/02/16 08:40:58;;;;;;;4.43;4.03;;;;;;;;;;5074627;28;20064;-79
2023/02/16 08:43:25;;;;;;;3.40;3.20;;;;;;;;;;5093045;28;20130;-80
2023/02/16 08:45:51;;;;;;;4.75;4.43;;;;;;;;;;5093326;28;20038;-80
2023/02/16 08:48:17;;;;;;;3.33;3.13;;;;;;;;;;5075185;28;20119;-80
2023/02/16 08:50:45;;;;;;;3.35;3.15;;;;;;;;;;5092983;28;20032;-80
2023/02/16 08:53:12;;;;;;;4.68;4.28;;;;;;;;;;5057612;28;20031;-80
2023/02/16 08:55:38;;;;;;;3.97;3.67;;;;;;;;;;5092656;28;20044;-79
2023/02/16 08:58:04;;;;;;;5.00;4.70;;;;;;;;;;5058127;28;20035;-80
2023/02/16 09:00:33;;;;;;;3.88;3.67;;;;;;;;;;5057488;28;20074;-79
2023/02/16 09:02:59;;;;;;;3.17;2.97;;;;;;;;;;5111490;28;20043;-79
2023/02/16 09:05:27;;;;;;;4.30;3.90;;;;;;;;;;5077778;28;20060;-80
2023/02/16 09:07:53;;;;;;;3.80;3.60;;;;;;;;;;5082286;28;20043;-80
2023/02/16 09:10:22;;;;;;;3.25;2.95;;;;;;;;;;5092862;28;20020;-80
2023/02/16 09:12:48;;;;;;;3.25;3.03;;;;;;;;;;5074962;28;20036;-80
2023/02/16 09:15:15;;;;;;;4.30;4.00;;;;;;;;;;5092496;28;20039;-80
2023/02/16 09:17:41;;;;;;;3.00;2.80;;;;;;;;;;5074525;28;20127;-79
2023/02/16 09:20:07;;;;;;;3.90;3.60;;;;;;;;;;5092127;28;20115;-80
2023/02/16 09:22:34;;;;;;;3.40;3.10;;;;;;;;;;5074009;28;20032;-80
2023/02/16 09:24:59;;;;;;;3.50;3.30;;;;;;;;;;5092410;28;20028;-79
2023/02/16 09:27:26;;;;;;;3.55;2.95;;;;;;;;;;5073495;28;20412;-80
2023/02/16 09:29:52;;;;;;;3.45;3.15;;;;;;;;;;5091675;28;20565;-80
2023/02/16 09:32:18;;;;;;;3.20;2.92;;;;;;;;;;5072748;28;20069;-78
2023/02/16 09:34:45;;;;;;;2.88;2.70;;;;;;;;;;5090810;28;20054;-79
2023/02/16 09:37:13;;;;;;;2.70;2.60;;;;;;;;;;5090353;28;20040;-79
2023/02/16 09:39:39;;;;;;;3.88;3.67;;;;;;;;;;5090936;28;20028;-79
2023/02/16 09:42:23;;;;;;;3.20;3.00;;;;;;;;;;5090711;28;20093;-79
2023/02/16 09:44:53;;;;;;;2.55;2.45;;;;;;;;;;5073422;28;20032;-80
2023/02/16 09:47:30;;;;;;;2.80;2.60;;;;;;;;;;5056063;28;20119;-79
2023/02/16 09:49:59;;;;;;;2.80;2.60;;;;;;;;;;5056678;28;20499;-80
2023/02/16 09:52:35;;;;;;;2.70;2.60;;;;;;;;;;5090922;28;20040;-80
2023/02/16 09:55:04;;;;;;;2.88;2.63;;;;;;;;;;5057107;28;20090;-79
2023/02/16 09:57:30;;;;;;;3.47;3.17;;;;;;;;;;5073354;28;20043;-80
2023/02/16 10:00:15;;;;;;;3.22;3.03;;;;;;;;;;5072620;28;20181;-79
2023/02/16 10:02:54;;;;;;;2.65;2.45;;;;;;;;;;5076068;28;20036;-80
2023/02/16 10:05:23;;;;;;;2.60;2.42;;;;;;;;;;5069506;28;20024;-80
2023/02/16 10:07:52;;;;;;;2.72;2.53;;;;;;;;;;5083425;28;20035;-80
2023/02/16 10:10:19;;;;;;;3.42;3.13;;;;;;;;;;5090882;28;20555;-80
2023/02/16 10:12:47;;;;;;;3.45;3.03;;;;;;;;;;5090154;28;20020;-80
2023/02/16 10:15:18;;;;;;;4.40;3.30;;;;;;;;;;5072516;28;20055;-79
2023/02/16 10:17:49;;;;;;;2.92;2.80;;;;;;;;;;5074397;28;20036;-79
2023/02/16 11:31:46;;;;;;;3.88;3.63;;;;;;;;;;5189545;27;20782;-72
2023/02/16 11:34:31;;;;;;;5.85;4.28;;;;;;;;;;5150250;27;20489;-72
2023/02/16 11:37:11;;;;;;;4.85;4.47;;;;;;;;;;5132590;27;20095;-72
2023/02/16 11:39:38;;;;;;;3.45;3.22;;;;;;;;;;5127403;27;20494;-72
2023/02/16 11:42:05;;;;;;;2.72;2.63;;;;;;;;;;5128201;27;20031;-72
2023/02/16 11:44:32;;;;;;;3.38;3.17;;;;;;;;;;5127688;27;20031;-72
2023/02/16 11:47:00;;;;;;;3.03;2.92;;;;;;;;;;5146504;27;20070;-72
2023/02/16 11:49:26;;;;;;;2.75;2.65;;;;;;;;;;5146692;27;20035;-72
2023/02/16 11:51:52;;;;;;;4.22;3.42;;;;;;;;;;5146687;27;20045;-72
2023/02/16 11:54:18;;;;;;;3.53;3.22;;;;;;;;;;5128183;27;20038;-72
2023/02/16 11:56:45;;;;;;;3.17;2.97;;;;;;;;;;5124401;27;20064;-72
2023/02/16 11:59:20;;;;;;;5.35;4.85;;;;;;;;;;5130136;27;20438;-72
2023/02/16 12:01:46;;;;;;;9.07;6.53;;;;;;;;;;5157514;27;20035;-72
2023/02/16 12:04:12;;;;;;;6.50;6.00;;;;;;;;;;5164388;27;20030;-71
2023/02/16 12:06:38;;;;;;;3.65;3.40;;;;;;;;;;5167293;27;20035;-72
2023/02/16 12:09:12;;;;;;;3.72;3.10;;;;;;;;;;5167615;27;20125;-72
2023/02/16 12:12:13;;;;;;;4.20;3.90;;;;;;;;;;5131073;27;20050;-72
2023/02/16 12:14:41;;;;;;;4.07;3.20;;;;;;;;;;5063283;28;20036;-72
2023/02/16 12:17:26;;;;;;;4.03;3.70;;;;;;;;;;5150740;27;20042;-71
2023/02/16 12:19:59;;;;;;;8.73;3.35;;;;;;;;;;5161981;27;20083;-72
2023/02/16 12:22:25;;;;;;;2.95;2.75;;;;;;;;;;5137732;27;20104;-73
2023/02/16 12:25:04;;;;;;;4.13;3.83;;;;;;;;;;5121405;27;20035;-73
2023/02/16 12:27:36;;;;;;;3.80;3.50;;;;;;;;;;5139574;27;20049;-72
2023/02/16 12:30:08;;;;;;;4.32;4.03;;;;;;;;;;5118891;27;20050;-71
2023/02/16 12:32:47;;;;;;;4.45;3.90;;;;;;;;;;5120500;27;20024;-71
2023/02/16 12:35:20;;;;;;;6.05;4.40;;;;;;;;;;5115880;27;20097;-73
2023/02/16 12:37:52;;;;;;;3.85;3.60;;;;;;;;;;5094257;27;20114;-72
2023/02/16 12:40:18;;;;;;;5.50;5.00;;;;;;;;;;5132402;27;20031;-73
2023/02/16 12:43:03;;;;;;;3.83;3.53;;;;;;;;;;5123275;27;20032;-73
2023/02/16 12:45:31;;;;;;;5.82;5.13;;;;;;;;;;5116888;27;20069;-73
2023/02/16 12:47:58;;;;;;;4.95;4.07;;;;;;;;;;5092923;28;20034;-72
2023/02/16 12:50:28;;;;;;;7.53;6.72;;;;;;;;;;5092911;28;20040;-72
2023/02/16 12:53:03;;;;;;;4.30;3.88;;;;;;;;;;5111206;28;20419;-71
2023/02/16 12:55:42;;;;;;;4.15;3.85;;;;;;;;;;5110820;28;20388;-70
2023/02/16 12:58:27;;;;;;;4.63;4.22;;;;;;;;;;5099939;27;20232;-70
2023/02/16 13:01:00;;;;;;;3.40;3.20;;;;;;;;;;5121473;27;20754;-70
2023/02/16 13:03:33;;;;;;;4.70;4.00;;;;;;;;;;5104620;27;20506;-71
2023/02/16 13:06:07;;;;;;;4.70;4.10;;;;;;;;;;5121350;27;20098;-70
2023/02/16 13:08:52;;;;;;;7.00;5.20;;;;;;;;;;5102241;27;20183;-71
2023/02/16 13:11:23;;;;;;;6.63;6.03;;;;;;;;;;5118902;27;20046;-70
2023/02/16 13:13:50;;;;;;;6.30;5.70;;;;;;;;;;5086629;27;20035;-69
2023/02/16 13:16:16;;;;;;;7.53;5.63;;;;;;;;;;5102960;27;20050;-70
2023/02/16 13:18:43;;;;;;;12.75;10.10;;;;;;;;;;5119264;27;20044;-70
2023/02/16 13:21:14;;;;;;;7.03;6.32;;;;;;;;;;5118971;27;20501;-71
2023/02/16 13:23:47;;;;;;;5.55;5.00;;;;;;;;;;5100455;27;20031;-71
2023/02/16 13:26:17;;;;;;;6.35;5.38;;;;;;;;;;5120297;27;20092;-70
2023/02/16 13:29:09;;;;;;;10.30;8.10;;;;;;;;;;5118512;27;20084;-70
2023/02/16 13:31:47;;;;;;;7.78;6.82;;;;;;;;;;5083400;27;20054;-70
2023/02/16 13:34:20;;;;;;;8.02;7.32;;;;;;;;;;5100146;27;20031;-71
2023/02/16 13:36:59;;;;;;;6.40;5.80;;;;;;;;;;5117151;27;20498;-71
2023/02/16 13:39:37;;;;;;;7.25;6.63;;;;;;;;;;5103714;27;20035;-71
2023/02/16 13:42:09;;;;;;;8.18;7.43;;;;;;;;;;5119282;27;20692;-70
2023/02/16 13:44:40;;;;;;;8.68;7.82;;;;;;;;;;5107603;28;20173;-71
2023/02/16 13:47:06;;;;;;;7.03;6.43;;;;;;;;;;5107376;27;20030;-70
2023/02/16 13:49:41;;;;;;;7.28;6.60;;;;;;;;;;5119998;27;20434;-70
2023/02/16 13:52:10;;;;;;;8.80;8.10;;;;;;;;;;5119426;27;20031;-71
2023/02/16 13:54:42;;;;;;;6.57;5.85;;;;;;;;;;5102560;27;20401;-71
2023/02/16 13:57:11;;;;;;;7.25;6.55;;;;;;;;;;5103353;27;20055;-70
2023/02/16 13:59:37;;;;;;;6.78;6.28;;;;;;;;;;5119881;27;20042;-70
2023/02/16 14:02:08;;;;;;;8.63;7.40;;;;;;;;;;5108932;27;20512;-70
2023/02/16 14:04:34;;;;;;;6.38;5.80;;;;;;;;;;5102256;27;20035;-69
2023/02/16 14:07:02;;;;;;;7.70;7.00;;;;;;;;;;5119562;27;20034;-70
2023/02/16 14:09:28;;;;;;;8.75;7.03;;;;;;;;;;5118901;27;20039;-70
2023/02/16 14:11:59;;;;;;;7.15;6.53;;;;;;;;;;5092843;27;20044;-70
2023/02/16 14:14:25;;;;;;;7.65;6.95;;;;;;;;;;5101958;27;20193;-69
2023/02/16 14:16:53;;;;;;;7.28;5.95;;;;;;;;;;5102416;27;20048;-69
2023/02/16 14:19:23;;;;;;;7.72;6.90;;;;;;;;;;5118192;27;20435;-70
2023/02/16 14:21:49;;;;;;;6.07;5.38;;;;;;;;;;5099615;27;20038;-70
2023/02/16 14:24:25;;;;;;;8.05;6.97;;;;;;;;;;5117417;27;20144;-70
2023/02/16 14:26:58;;;;;;;8.90;7.70;;;;;;;;;;5117164;27;20087;-70
2023/02/16 14:29:29;;;;;;;11.43;7.15;;;;;;;;;;5101779;27;20027;-70
2023/02/16 14:31:58;;;;;;;12.73;10.67;;;;;;;;;;5092603;27;20080;-71
2023/02/16 14:34:35;;;;;;;9.35;7.88;;;;;;;;;;5083420;27;20023;-71
2023/02/16 14:37:13;;;;;;;8.05;7.35;;;;;;;;;;5119583;27;20035;-70
2023/02/16 14:39:40;;;;;;;6.90;6.20;;;;;;;;;;5116912;27;20106;-70
2023/02/16 14:42:07;;;;;;;7.70;6.90;;;;;;;;;;5091303;27;20106;-70
2023/02/16 14:44:44;;;;;;;8.88;8.05;;;;;;;;;;5117412;27;20176;-71
2023/02/16 14:47:13;;;;;;;6.97;6.38;;;;;;;;;;5102788;27;20058;-72
2023/02/16 14:49:58;;;;;;;8.80;8.00;;;;;;;;;;5098254;28;20036;-73
2023/02/16 14:52:35;;;;;;;7.00;6.28;;;;;;;;;;5117102;27;20039;-71
2023/02/16 14:55:22;;;;;;;7.90;7.20;;;;;;;;;;5115377;27;20034;-72
2023/02/16 14:58:01;;;;;;;8.38;7.57;;;;;;;;;;5103166;27;20027;-71
2023/02/16 15:00:29;;;;;;;6.53;5.93;;;;;;;;;;5118137;27;20031;-70
2023/02/16 15:03:13;;;;;;;7.60;6.95;;;;;;;;;;5101438;27;20027;-71
2023/02/16 15:05:39;;;;;;;8.73;7.85;;;;;;;;;;5097445;27;20041;-71
2023/02/16 15:08:10;;;;;;;8.27;7.47;;;;;;;;;;5115296;27;20023;-70
2023/02/16 15:10:37;;;;;;;7.75;6.95;;;;;;;;;;5098693;28;20163;-70
2023/02/16 15:13:03;;;;;;;8.13;6.97;;;;;;;;;;5099116;28;20023;-70
2023/02/16 15:15:40;;;;;;;7.68;6.97;;;;;;;;;;5103028;27;20418;-70
2023/02/16 15:18:08;;;;;;;7.05;6.35;;;;;;;;;;5091938;28;20027;-71
2023/02/16 15:20:35;;;;;;;7.03;5.70;;;;;;;;;;5094987;28;20409;-70
2023/02/16 15:23:06;;;;;;;9.25;7.05;;;;;;;;;;5100907;28;20495;-71
2023/02/16 15:25:39;;;;;;;7.72;6.93;;;;;;;;;;5118518;28;20039;-71
2023/02/16 15:28:11;;;;;;;7.20;6.43;;;;;;;;;;5118924;28;20034;-71
2023/02/16 15:30:41;;;;;;;12.55;8.27;;;;;;;;;;5119297;28;20745;-70
2023/02/16 15:33:22;;;;;;;8.38;7.40;;;;;;;;;;5102503;28;20031;-70
2023/02/16 15:36:12;;;;;;;7.10;6.15;;;;;;;;;;5101900;28;20138;-70
2023/02/16 15:38:39;;;;;;;9.27;8.43;;;;;;;;;;5086562;28;20035;-70
2023/02/16 15:41:06;;;;;;;7.88;7.18;;;;;;;;;;5119322;28;20051;-71
2023/02/16 15:43:45;;;;;;;8.32;7.13;;;;;;;;;;5115988;28;20035;-72
2023/02/16 15:46:20;;;;;;;8.75;7.57;;;;;;;;;;5095918;28;20120;-70
2023/02/16 15:48:49;;;;;;;9.98;6.45;;;;;;;;;;5106638;28;20043;-69
2023/02/16 15:51:17;;;;;;;9.98;9.07;;;;;;;;;;5106889;28;20124;-70
2023/02/16 15:53:45;;;;;;;9.57;6.95;;;;;;;;;;5082940;28;20259;-70
2023/02/16 15:56:16;;;;;;;12.98;9.48;;;;;;;;;;5128100;28;20066;-70
2023/02/16 15:58:42;;;;;;;10.52;8.98;;;;;;;;;;5109403;28;20035;-70
2023/02/16 16:01:10;;;;;;;9.73;7.65;;;;;;;;;;5128928;28;20034;-70
2023/02/16 16:03:45;;;;;;;12.18;10.95;;;;;;;;;;5128587;28;20061;-71
2023/02/16 16:06:12;;;;;;;11.68;7.97;;;;;;;;;;5129440;27;20525;-69
2023/02/16 16:08:38;;;;;;;8.90;8.02;;;;;;;;;;5113867;27;20158;-70
2023/02/16 16:11:04;;;;;;;7.38;6.68;;;;;;;;;;5132201;27;20420;-70
2023/02/16 16:13:32;;;;;;;11.68;10.45;;;;;;;;;;5131929;27;20513;-69
2023/02/16 16:16:00;;;;;;;11.65;10.45;;;;;;;;;;5113818;27;20042;-70
2023/02/16 16:18:36;;;;;;;12.82;11.32;;;;;;;;;;5097192;27;20035;-70
2023/02/16 16:21:02;;;;;;;8.80;7.70;;;;;;;;;;5132511;27;20031;-70
2023/02/16 16:23:28;;;;;;;11.20;9.60;;;;;;;;;;5106486;28;20073;-70
2023/02/16 16:25:54;;;;;;;11.25;9.38;;;;;;;;;;5093217;28;20059;-70
2023/02/16 16:28:25;;;;;;;14.80;9.02;;;;;;;;;;5092865;28;20035;-70
2023/02/16 16:30:52;;;;;;;;;;;;;;;;;;5111833;28;20043;-70
2023/02/16 16:33:18;;;;;;;7.60;6.90;;;;;;;;;;5120882;27;19916;-70
2023/02/16 16:35:47;;;;;;;8.38;6.95;;;;;;;;;;5132029;27;20134;-70
2023/02/16 16:38:26;;;;;;;12.25;9.27;;;;;;;;;;5113833;27;20494;-70
2023/02/16 16:40:58;;;;;;;9.88;8.05;;;;;;;;;;5099698;28;20118;-70
2023/02/16 16:43:34;;;;;;;7.90;7.20;;;;;;;;;;5111097;28;20448;-70
2023/02/16 16:46:09;;;;;;;7.95;7.15;;;;;;;;;;5111577;28;20066;-70
2023/02/16 16:48:36;;;;;;;7.70;6.95;;;;;;;;;;5115865;27;20396;-70
2023/02/16 16:51:33;;;;;;;10.35;9.18;;;;;;;;;;5117568;27;20051;-70
2023/02/16 16:54:01;;;;;;;10.75;8.35;;;;;;;;;;5109679;27;20066;-69
2023/02/16 16:56:27;;;;;;;10.57;7.50;;;;;;;;;;5092511;27;20122;-70